Norwood Young America, Minnesota
Current Conditions -  °F | °C
As of 11:34 AM on Friday 19 Dec 2014 (Local Time) from KGYL Reporting Station
Haze Haze  
Wind Chill: 25°   Ceiling: 800
Heat Index: 30°   Visibility: 5mi
Dew Point: 28°   Wind: 5mph
Humidity: 92%   Direction: 150°SSE
Pressure: 30.19"   Gusts: NA
Location:  44.7521°N, 93.9117°W
Report Text: KGYL 191734Z AUTO 15004KT 5SM BR OVC008 M01/M02 A3019 RMK AO2 T10131024
Loading
Personal Weather Stations






























Interactive Weather Map New forecast layout! Learn more

10-Day Weather Forecast

Advertisements
Track Severe Weather on mobile